LTAF/ADA METAR and TAF weather

Enter ICAO airport designator
Station Type Date Time Source
LTAF METAR 2020/01/22 11:50 UTC NOAA

LTAF 221150Z VRB04KT CAVOK 16/M06 Q1020 NOSIG


Station Type Date Time Source
LTAF Decoded METAR 2020/01/22 11:50 UTC NOAA

Adana / Sakirpasa, Turkey (LTAF) 36-59N 035-18E 20M
Jan 22, 2020 - 06:50 AM EST / 2020.01.22 1150 UTC
Wind: Variable at 5 MPH (4 KT):0
Visibility: greater than 7 mile(s):0
Temperature: 60 F (16 C)
Dew Point: 21 F (-6 C)
Relative Humidity: 21%
Pressure (altimeter): 30.12 in. Hg (1020 hPa)
ob: LTAF 221150Z VRB04KT CAVOK 16/M06 Q1020 NOSIG
cycle: 12

Station Type Date Time Source
LTAF TAF 2020/01/22 12:01 UTC NOAA

TAF LTAF 221040Z 2212/2312 36009KT CAVOK

Example: see airport list